Deneb Leader — 3EKQ — position and weather

sailwx.info

Track history (hours):
 
Tides and Currents Weather Stations Pressure Air Temp Water Temp Dewpoint Dewpoint Depression Visibility Wind Speed Wind Dir Waves Ship Positions

Deneb Leader

Last reported at 2018-Feb-21 07:00 UTC. Time now 2018-Feb-21 07:17 UTC.
Position N 51°19' E 003°13'.

Length 199 m; draft 9.3 m.

Type: Cargo ship. MMSI: 356688000.

Date/timePositionNaut miles runAvg speedWind from/ knotsBaromVisibWave heightAir tempDewpointWater temp
2018-Feb-21 07:00N 51°19' E 003°13'0 0.0
2018-Feb-21 06:30N 51°19' E 003°13'0 0.0
2018-Feb-21 06:00N 51°19' E 003°13'0 0.0
2018-Feb-21 05:30N 51°19' E 003°13'0 0.0
2018-Feb-21 05:00N 51°19' E 003°13'0 0.0
2018-Feb-21 04:30N 51°19' E 003°13'0 0.0
2018-Feb-21 04:00N 51°19' E 003°13'0 0.0
2018-Feb-21 03:30N 51°19' E 003°13'0 0.0
2018-Feb-21 03:00N 51°19' E 003°13'0 0.0
2018-Feb-21 02:30N 51°19' E 003°13'0 0.0
2018-Feb-21 02:00N 51°19' E 003°13'0 0.0
2018-Feb-21 01:30N 51°19' E 003°13'0 0.0
2018-Feb-21 01:00N 51°19' E 003°13'0 0.0
2018-Feb-21 00:30N 51°19' E 003°13'1 2.8
2018-Feb-21 00:00N 51°20' E 003°13'0 0.0
2018-Feb-20 23:30N 51°20' E 003°13'0 0.0
2018-Feb-20 23:00N 51°20' E 003°13'2 3.8
2018-Feb-20 22:30N 51°22' E 003°12'510.5
2018-Feb-20 22:00N 51°24' E 003°04'611.6
2018-Feb-20 21:30N 51°22' E 002°55'713.2
2018-Feb-20 21:00N 51°22' E 002°45'5 9.8
2018-Feb-20 20:29N 51°22' E 002°37'4 7.5
2018-Feb-20 20:00N 51°22' E 002°31'2 4.1
2018-Feb-20 19:29N 51°24' E 002°31'5 9.5
2018-Feb-20 18:59N 51°28' E 002°34'5 9.3
2018-Feb-20 18:30N 51°33' E 002°36'5 9.8
2018-Feb-20 18:00N 51°37' E 002°39'510.1
2018-Feb-20 17:30N 51°42' E 002°38'612.9
2018-Feb-20 16:59N 51°49' E 002°39'714.5
2018-Feb-20 16:29N 51°56' E 002°43'8616.6
2018-Feb-20 11:18N 53°04' E 004°10'916.8
2018-Feb-20 10:47N 53°09' E 004°21'416.2
2018-Feb-20 10:30N 53°13' E 004°25'2514.4
2018-Feb-20 08:48N 53°32' E 004°51'1114.9
2018-Feb-20 08:04N 53°36' E 005°08'115.0
2018-Feb-20 07:59N 53°36' E 005°10'2316.0
2018-Feb-20 06:33N 53°43' E 005°47'317.2
2018-Feb-20 06:23N 53°44' E 005°52'7016.1
2018-Feb-20 02:03N 53°53' E 007°49'114.5
2018-Feb-20 01:59N 53°53' E 007°50'612.7
2018-Feb-20 01:30N 53°51' E 008°00'816.0
2018-Feb-20 01:00N 53°46' E 008°11'815.5
2018-Feb-20 00:30N 53°41' E 008°21'713.3
2018-Feb-20 00:00N 53°37' E 008°29'4 7.4
2018-Feb-19 23:30N 53°34' E 008°33'0 1.0
2018-Feb-19 23:00N 53°34' E 008°33'0 0.8
2018-Feb-19 22:30N 53°35' E 008°33'0 0.1
2018-Feb-19 22:00N 53°35' E 008°33'0 0.0
2018-Feb-19 21:30N 53°35' E 008°33'0 0.0
2018-Feb-19 21:00N 53°35' E 008°33'0 0.0
2018-Feb-19 20:30N 53°35' E 008°33'0 0.0
2018-Feb-19 20:00N 53°35' E 008°33'0 0.0
2018-Feb-19 19:30N 53°35' E 008°33'0 0.0
2018-Feb-19 19:00N 53°35' E 008°33'0 0.0
2018-Feb-19 18:30N 53°35' E 008°33'0 0.0
2018-Feb-19 18:00N 53°35' E 008°33'0 0.0
2018-Feb-19 17:30N 53°35' E 008°33'0 0.0
2018-Feb-19 17:00N 53°35' E 008°33'0 0.0
2018-Feb-19 16:30N 53°35' E 008°33'0 0.0
2018-Feb-19 16:00N 53°35' E 008°33'0 0.0
2018-Feb-19 15:30N 53°35' E 008°33'0 0.0
2018-Feb-19 15:00N 53°35' E 008°33'0 0.0
2018-Feb-19 14:30N 53°35' E 008°33'0 0.0
2018-Feb-19 14:00N 53°35' E 008°33'0 0.0
2018-Feb-19 13:30N 53°35' E 008°33'0 0.0
2018-Feb-19 13:00N 53°35' E 008°33'0 0.0
2018-Feb-19 12:30N 53°35' E 008°33'0 0.0
2018-Feb-19 12:00N 53°35' E 008°33'0 0.0
2018-Feb-19 11:30N 53°35' E 008°33'0 0.0
2018-Feb-19 11:00N 53°35' E 008°33'0 0.0
2018-Feb-19 10:30N 53°35' E 008°33'0 0.0
2018-Feb-19 10:00N 53°35' E 008°33'0 0.0
2018-Feb-19 09:30N 53°35' E 008°33'0 0.0
2018-Feb-19 09:00N 53°35' E 008°33'0 0.0
2018-Feb-19 08:30N 53°35' E 008°33'0 0.0
2018-Feb-19 08:00N 53°35' E 008°33'0 0.0
2018-Feb-19 07:30N 53°35' E 008°33'0 0.0
2018-Feb-19 07:00N 53°35' E 008°33'0 0.0
2018-Feb-19 06:30N 53°35' E 008°33'0 0.0
2018-Feb-19 06:00N 53°35' E 008°33'0 0.0
2018-Feb-19 05:30N 53°35' E 008°33'0 0.0
2018-Feb-19 05:00N 53°35' E 008°33'0 0.0
2018-Feb-19 04:30N 53°35' E 008°33'0 0.0
2018-Feb-19 04:00N 53°35' E 008°33'0 0.0
2018-Feb-19 03:30N 53°35' E 008°33'0 0.0
2018-Feb-19 03:00N 53°35' E 008°33'0 0.0
2018-Feb-19 02:30N 53°35' E 008°33'0 0.0
2018-Feb-19 02:00N 53°35' E 008°33'0 0.0
2018-Feb-19 01:30N 53°35' E 008°33'0 0.0
2018-Feb-19 01:00N 53°35' E 008°33'0 0.0
2018-Feb-19 00:30N 53°35' E 008°33'0 0.0
2018-Feb-19 00:00N 53°35' E 008°33'0 0.0
2018-Feb-18 23:30N 53°35' E 008°33'0 0.0
2018-Feb-18 23:00N 53°35' E 008°33'0 0.0
2018-Feb-18 22:30N 53°35' E 008°33'0 0.0
2018-Feb-18 22:00N 53°35' E 008°33'0 0.0
2018-Feb-18 21:30N 53°35' E 008°33'0 0.0
2018-Feb-18 21:00N 53°35' E 008°33'0 0.0
2018-Feb-18 20:30N 53°35' E 008°33'0 0.0
2018-Feb-18 20:00N 53°35' E 008°33'0 0.6
2018-Feb-18 19:30N 53°34' E 008°33'0 1.0
2018-Feb-18 19:00N 53°34' E 008°34'0 0.0
2018-Feb-18 18:29N 53°34' E 008°34'0 0.0
2018-Feb-18 17:59N 53°34' E 008°34'0 0.0
2018-Feb-18 17:29N 53°34' E 008°34'0 0.0
2018-Feb-18 16:59N 53°34' E 008°34'0 0.0
2018-Feb-18 16:29N 53°34' E 008°34'0 0.0
2018-Feb-18 15:59N 53°34' E 008°34'0 0.0
2018-Feb-18 15:29N 53°34' E 008°34'0 0.0
2018-Feb-18 14:59N 53°34' E 008°34'0 0.0
2018-Feb-18 14:29N 53°34' E 008°34'0 0.0
2018-Feb-18 13:56N 53°34' E 008°34'0 0.0
2018-Feb-18 13:29N 53°34' E 008°34'0 0.0
2018-Feb-18 12:59N 53°34' E 008°34'0 0.0
2018-Feb-18 12:29N 53°34' E 008°34'0 0.0
2018-Feb-18 11:59N 53°34' E 008°34'0 0.0
2018-Feb-18 11:29N 53°34' E 008°34'0 0.0
2018-Feb-18 10:59N 53°34' E 008°34'0 0.0
2018-Feb-18 10:29N 53°34' E 008°34'0 0.0
2018-Feb-18 09:59N 53°34' E 008°34'0 0.0
2018-Feb-18 09:29N 53°34' E 008°34'0 0.0
2018-Feb-18 08:56N 53°34' E 008°34'0 0.0
2018-Feb-18 08:29N 53°34' E 008°34'0 0.0
2018-Feb-18 07:59N 53°34' E 008°34'0 0.0
2018-Feb-18 07:29N 53°34' E 008°34'0 0.0
2018-Feb-18 06:59N 53°34' E 008°34'0 0.0
2018-Feb-18 06:29N 53°34' E 008°34'0 0.0
2018-Feb-18 05:59N 53°34' E 008°34'0 0.0
2018-Feb-18 05:29N 53°34' E 008°34'0 0.0
2018-Feb-18 04:59N 53°34' E 008°34'0 0.0
2018-Feb-18 04:29N 53°34' E 008°34'0 0.0
2018-Feb-18 03:59N 53°34' E 008°34'0 0.0
2018-Feb-18 03:29N 53°34' E 008°34'0 0.0
2018-Feb-18 02:59N 53°34' E 008°34'0 0.0
2018-Feb-18 02:29N 53°34' E 008°34'0 0.0
2018-Feb-18 01:59N 53°34' E 008°34'0 0.0
2018-Feb-18 01:29N 53°34' E 008°34'0 0.0
2018-Feb-18 00:59N 53°34' E 008°34'0 0.0
2018-Feb-18 00:29N 53°34' E 008°34'0 0.0
2018-Feb-17 23:59N 53°34' E 008°34'0 0.0
2018-Feb-17 23:29N 53°34' E 008°34'0 0.0
2018-Feb-17 22:59N 53°34' E 008°34'0 0.0
2018-Feb-17 22:29N 53°34' E 008°34'0 0.0
2018-Feb-17 21:59N 53°34' E 008°34'0 0.0
2018-Feb-17 21:29N 53°34' E 008°34'0 0.0
2018-Feb-17 20:59N 53°34' E 008°34'0 0.0
2018-Feb-17 20:29N 53°34' E 008°34'0 0.0
2018-Feb-17 19:53N 53°34' E 008°34'0 0.0
2018-Feb-17 19:29N 53°34' E 008°34'0 0.0
2018-Feb-17 18:59N 53°34' E 008°34'0 0.0
2018-Feb-17 18:29N 53°34' E 008°34'0 0.0
2018-Feb-17 17:59N 53°34' E 008°34'0 0.0
2018-Feb-17 17:29N 53°34' E 008°34'0 0.0
2018-Feb-17 16:59N 53°34' E 008°34'0 0.0
2018-Feb-17 16:29N 53°34' E 008°34'0 0.0
2018-Feb-17 15:56N 53°34' E 008°34'0 0.0
2018-Feb-17 15:29N 53°34' E 008°34'0 0.0
2018-Feb-17 14:59N 53°34' E 008°34'0 0.0
2018-Feb-17 14:29N 53°34' E 008°34'0 0.0
2018-Feb-17 13:59N 53°34' E 008°34'0 0.0
2018-Feb-17 13:29N 53°34' E 008°34'0 0.0
2018-Feb-17 12:59N 53°34' E 008°34'0 0.0
2018-Feb-17 12:29N 53°34' E 008°34'0 0.0
2018-Feb-17 11:59N 53°34' E 008°34'0 0.0
2018-Feb-17 11:29N 53°34' E 008°34'0 0.0
2018-Feb-17 10:59N 53°34' E 008°34'0 0.0
2018-Feb-17 10:29N 53°34' E 008°34'0 0.0
2018-Feb-17 09:59N 53°34' E 008°34'0 0.0
2018-Feb-17 09:29N 53°34' E 008°34'0 0.0
2018-Feb-17 08:59N 53°34' E 008°34'0 0.0
2018-Feb-17 08:29N 53°34' E 008°34'0 0.0
2018-Feb-17 07:59N 53°34' E 008°34'0 0.0
2018-Feb-17 07:29N 53°34' E 008°34'0 0.0
2018-Feb-17 06:59N 53°34' E 008°34'0 0.0
2018-Feb-17 06:29N 53°34' E 008°34'0 0.0
2018-Feb-17 05:59N 53°34' E 008°34'0 0.0
2018-Feb-17 05:29N 53°34' E 008°34'0 0.0
2018-Feb-17 04:59N 53°34' E 008°34'0 0.0
2018-Feb-17 04:29N 53°34' E 008°34'0 0.0
2018-Feb-17 03:59N 53°34' E 008°34'0 0.0
2018-Feb-17 03:29N 53°34' E 008°34'0 0.0
2018-Feb-17 02:59N 53°34' E 008°34'0 0.0
2018-Feb-17 02:29N 53°34' E 008°34'0 0.0
2018-Feb-17 01:59N 53°34' E 008°34'0 0.0
2018-Feb-17 01:29N 53°34' E 008°34'0 0.0
2018-Feb-17 00:59N 53°34' E 008°34'0 0.0
2018-Feb-17 00:29N 53°34' E 008°34'0 0.0
2018-Feb-16 23:59N 53°34' E 008°34'0 0.0
2018-Feb-16 23:29N 53°34' E 008°34'0 0.0
2018-Feb-16 22:59N 53°34' E 008°34'0 0.0
2018-Feb-16 22:29N 53°34' E 008°34'0 0.0
2018-Feb-16 21:59N 53°34' E 008°34'0 0.0
2018-Feb-16 21:29N 53°34' E 008°34'0 0.0
2018-Feb-16 20:59N 53°34' E 008°34'0 0.0
2018-Feb-16 20:29N 53°34' E 008°34'0 0.0
2018-Feb-16 19:59N 53°34' E 008°34'0 0.0
2018-Feb-16 19:29N 53°34' E 008°34'0 0.0
2018-Feb-16 18:59N 53°34' E 008°34'0 0.0
2018-Feb-16 18:29N 53°34' E 008°34'0 0.0
2018-Feb-16 17:59N 53°34' E 008°34'0 0.0
2018-Feb-16 17:29N 53°34' E 008°34'0 0.0
2018-Feb-16 16:59N 53°34' E 008°34'0 0.0
2018-Feb-16 16:29N 53°34' E 008°34'0 0.0
2018-Feb-16 15:59N 53°34' E 008°34'0 0.0
2018-Feb-16 15:29N 53°34' E 008°34'0 0.0
2018-Feb-16 14:59N 53°34' E 008°34'0 0.0
2018-Feb-16 14:29N 53°34' E 008°34'0 0.0
2018-Feb-16 13:59N 53°34' E 008°34'0 0.0
2018-Feb-16 13:29N 53°34' E 008°34'0 0.0
2018-Feb-16 12:59N 53°34' E 008°34'0 0.0
2018-Feb-16 12:29N 53°34' E 008°34'0 0.0
2018-Feb-16 11:59N 53°34' E 008°34'0 0.0
2018-Feb-16 11:29N 53°34' E 008°34'0 0.0
2018-Feb-16 10:59N 53°34' E 008°34'0 0.0
2018-Feb-16 10:29N 53°34' E 008°34'0 0.0
2018-Feb-16 09:59N 53°34' E 008°34'0 0.0
2018-Feb-16 09:29N 53°34' E 008°34'0 0.0
2018-Feb-16 08:59N 53°34' E 008°34'0 0.0
2018-Feb-16 08:29N 53°34' E 008°34'0 0.0
2018-Feb-16 07:59N 53°34' E 008°34'0 0.0
2018-Feb-16 07:29N 53°34' E 008°34'0 0.0
2018-Feb-16 06:59N 53°34' E 008°34'0 0.0
2018-Feb-16 06:29N 53°34' E 008°34'0 0.0
2018-Feb-16 05:59N 53°34' E 008°34'0 0.0
2018-Feb-16 05:29N 53°34' E 008°34'0 0.0
2018-Feb-16 04:53N 53°34' E 008°34'0 0.0
2018-Feb-16 04:29N 53°34' E 008°34'0 0.0
2018-Feb-16 03:59N 53°34' E 008°34'0 0.0
2018-Feb-16 03:29N 53°34' E 008°34'0 0.0
2018-Feb-16 02:59N 53°34' E 008°34'0 0.0
2018-Feb-16 02:29N 53°34' E 008°34'0 0.0
2018-Feb-16 01:59N 53°34' E 008°34'0 0.0
2018-Feb-16 01:29N 53°34' E 008°34'0 0.0
2018-Feb-16 00:59N 53°34' E 008°34'0 0.0
2018-Feb-16 00:29N 53°34' E 008°34'0 0.0
2018-Feb-15 23:59N 53°34' E 008°34'0 0.0
2018-Feb-15 23:29N 53°34' E 008°34'0 0.0
2018-Feb-15 22:59N 53°34' E 008°34'0 0.0
2018-Feb-15 22:29N 53°34' E 008°34'0 0.0
2018-Feb-15 21:59N 53°34' E 008°34'0 0.0
2018-Feb-15 21:29N 53°34' E 008°34'0 0.0
2018-Feb-15 20:59N 53°34' E 008°34'0 0.0
2018-Feb-15 20:29N 53°34' E 008°34'0 0.0
2018-Feb-15 19:59N 53°34' E 008°34'0 0.0
2018-Feb-15 19:29N 53°34' E 008°34'0 0.0
2018-Feb-15 18:59N 53°34' E 008°34'0 0.0
2018-Feb-15 18:29N 53°34' E 008°34'0 0.0
2018-Feb-15 17:59N 53°34' E 008°34'0 0.0
2018-Feb-15 17:29N 53°34' E 008°34'0 0.0
2018-Feb-15 16:59N 53°34' E 008°34'0 0.0
2018-Feb-15 16:29N 53°34' E 008°34'0 0.0
2018-Feb-15 15:59N 53°34' E 008°34'0 0.0
2018-Feb-15 15:29N 53°34' E 008°34'0 0.0
2018-Feb-15 14:59N 53°34' E 008°34'0 0.0
2018-Feb-15 14:29N 53°34' E 008°34'0 0.0
2018-Feb-15 13:59N 53°34' E 008°34'0 0.0
2018-Feb-15 13:26N 53°34' E 008°34'0 0.0
2018-Feb-15 12:59N 53°34' E 008°34'0 0.0
2018-Feb-15 12:29N 53°34' E 008°34'0 0.0
2018-Feb-15 11:59N 53°34' E 008°34'0 0.0
2018-Feb-15 11:29N 53°34' E 008°34'0 0.0
2018-Feb-15 10:59N 53°34' E 008°34'0 0.0
2018-Feb-15 10:29N 53°34' E 008°34'0 0.0
2018-Feb-15 09:59N 53°34' E 008°34'0 0.0
2018-Feb-15 09:29N 53°34' E 008°34'0 0.0
2018-Feb-15 08:59N 53°34' E 008°34'0 0.0
2018-Feb-15 08:29N 53°34' E 008°34'0 0.0
2018-Feb-15 07:59N 53°34' E 008°34'0 0.0
2018-Feb-15 07:29N 53°34' E 008°34'0 0.0
2018-Feb-15 06:59N 53°34' E 008°34'0 0.0
2018-Feb-15 06:23N 53°34' E 008°34'0 0.0
2018-Feb-15 05:59N 53°34' E 008°34'0 0.0
2018-Feb-15 05:29N 53°34' E 008°34'0 0.0
2018-Feb-15 04:59N 53°34' E 008°34'0 0.0
2018-Feb-15 04:29N 53°34' E 008°34'0 0.0
2018-Feb-15 03:59N 53°34' E 008°34'0 0.0
2018-Feb-15 03:29N 53°34' E 008°34'0 0.0
2018-Feb-15 02:59N 53°34' E 008°34'0 0.0
2018-Feb-15 02:29N 53°34' E 008°34'0 0.0
2018-Feb-15 01:59N 53°34' E 008°34'0 0.0
2018-Feb-15 01:29N 53°34' E 008°34'0 0.0
2018-Feb-15 00:59N 53°34' E 008°34'0 0.0
2018-Feb-15 00:29N 53°34' E 008°34'0 0.0
2018-Feb-14 23:59N 53°34' E 008°34'0 0.0
2018-Feb-14 23:29N 53°34' E 008°34'0 0.0
2018-Feb-14 22:59N 53°34' E 008°34'0 0.0
2018-Feb-14 22:29N 53°34' E 008°34'0 0.0
2018-Feb-14 21:59N 53°34' E 008°34'0 0.0
2018-Feb-14 21:29N 53°34' E 008°34'0 0.0
2018-Feb-14 20:59N 53°34' E 008°34'0 0.0
2018-Feb-14 20:29N 53°34' E 008°34'0 0.0
2018-Feb-14 19:59N 53°34' E 008°34'0 0.0
2018-Feb-14 19:29N 53°34' E 008°34'0 0.0
2018-Feb-14 18:59N 53°34' E 008°34'0 0.0
2018-Feb-14 18:29N 53°34' E 008°34'0 0.0
2018-Feb-14 17:59N 53°34' E 008°34'0 0.0
2018-Feb-14 17:29N 53°34' E 008°34'0 0.0
2018-Feb-14 16:59N 53°34' E 008°34'0 0.0
2018-Feb-14 16:29N 53°34' E 008°34'0 0.0
2018-Feb-14 15:59N 53°34' E 008°34'0 0.0
2018-Feb-14 15:29N 53°34' E 008°34'0 0.0
2018-Feb-14 14:59N 53°34' E 008°34'0 0.0
2018-Feb-14 14:29N 53°34' E 008°34'0 0.0
2018-Feb-14 13:59N 53°34' E 008°34'0 0.0
2018-Feb-14 13:29N 53°34' E 008°34'0 0.0
2018-Feb-14 12:59N 53°34' E 008°34'0 0.0
2018-Feb-14 12:29N 53°34' E 008°34'0 0.0
2018-Feb-14 11:59N 53°34' E 008°34'0 0.0
2018-Feb-14 11:29N 53°34' E 008°34'0 0.0
2018-Feb-14 10:59N 53°34' E 008°34'0 0.0
2018-Feb-14 10:29N 53°34' E 008°34'0 0.0
2018-Feb-14 09:59N 53°34' E 008°34'0 0.0
2018-Feb-14 09:29N 53°34' E 008°34'0 0.0
2018-Feb-14 08:59N 53°34' E 008°34'0 0.0
2018-Feb-14 08:29N 53°34' E 008°34'0 0.0
2018-Feb-14 07:59N 53°34' E 008°34'0 0.0
2018-Feb-14 07:29N 53°34' E 008°34'0 0.0
2018-Feb-14 06:59N 53°34' E 008°34'0 0.0
2018-Feb-14 06:29N 53°34' E 008°34'0 0.0
2018-Feb-14 05:59N 53°34' E 008°34'0 0.0
2018-Feb-14 05:29N 53°34' E 008°34'0 0.0
2018-Feb-14 04:59N 53°34' E 008°34'0 0.0
2018-Feb-14 04:29N 53°34' E 008°34'0 0.0
2018-Feb-14 03:59N 53°34' E 008°34'0 0.0
2018-Feb-14 03:28N 53°34' E 008°34'0 0.0
2018-Feb-14 02:58N 53°34' E 008°34'0 0.0
2018-Feb-14 02:29N 53°34' E 008°34'0 0.0
2018-Feb-14 01:59N 53°34' E 008°34'0 0.0
2018-Feb-14 01:29N 53°34' E 008°34'0 0.0
2018-Feb-14 00:59N 53°34' E 008°34'0 0.0
2018-Feb-14 00:29N 53°34' E 008°34'0 0.0
2018-Feb-13 23:59N 53°34' E 008°34'0 0.0
2018-Feb-13 23:29N 53°34' E 008°34'0 0.0
2018-Feb-13 22:58N 53°34' E 008°34'0 0.0
2018-Feb-13 22:29N 53°34' E 008°34'0 0.0
2018-Feb-13 21:58N 53°34' E 008°34'0 0.0
2018-Feb-13 21:29N 53°34' E 008°34'0 0.0
2018-Feb-13 20:59N 53°34' E 008°34'0 0.0
2018-Feb-13 20:29N 53°34' E 008°34'0 0.0
2018-Feb-13 19:59N 53°34' E 008°34'0 0.0
2018-Feb-13 19:29N 53°34' E 008°34'0 0.0
2018-Feb-13 18:59N 53°34' E 008°34'0 0.0
2018-Feb-13 18:29N 53°34' E 008°34'0 0.0
2018-Feb-13 17:58N 53°34' E 008°34'0 0.0
2018-Feb-13 17:29N 53°34' E 008°34'0 0.0
2018-Feb-13 16:58N 53°34' E 008°34'0 0.0
2018-Feb-13 16:28N 53°34' E 008°34'0 0.0
2018-Feb-13 15:58N 53°34' E 008°34'0 0.0
2018-Feb-13 15:28N 53°34' E 008°34'0 0.0
2018-Feb-13 14:58N 53°34' E 008°34'0 0.0
2018-Feb-13 14:29N 53°34' E 008°34'0 0.0
2018-Feb-13 13:58N 53°34' E 008°34'0 0.0
2018-Feb-13 13:29N 53°34' E 008°34'0 0.0
2018-Feb-13 12:58N 53°34' E 008°34'0 0.0
2018-Feb-13 12:28N 53°34' E 008°34'0 0.0
2018-Feb-13 11:58N 53°34' E 008°34'0 0.0
2018-Feb-13 11:29N 53°34' E 008°34'0 0.0
2018-Feb-13 10:59N 53°34' E 008°34'0 0.0
2018-Feb-13 10:29N 53°34' E 008°34'0 0.0
2018-Feb-13 09:58N 53°34' E 008°34'0 0.0
2018-Feb-13 09:29N 53°34' E 008°34'0 0.0
2018-Feb-13 08:58N 53°34' E 008°34'0 0.0
2018-Feb-13 08:28N 53°34' E 008°34'0 0.0
2018-Feb-13 07:58N 53°34' E 008°34'0 0.0
2018-Feb-13 07:28N 53°34' E 008°34'0 0.0
2018-Feb-13 06:58N 53°34' E 008°34'0 0.0
2018-Feb-13 06:28N 53°34' E 008°34'0 0.0
2018-Feb-13 05:58N 53°34' E 008°34'0 0.0
2018-Feb-13 05:29N 53°34' E 008°34'0 0.0
2018-Feb-13 04:58N 53°34' E 008°34'0 0.0
2018-Feb-13 04:29N 53°34' E 008°34'0 0.0
2018-Feb-13 03:58N 53°34' E 008°34'0 0.0
2018-Feb-13 03:29N 53°34' E 008°34'0 0.0
2018-Feb-13 02:59N 53°34' E 008°34'0 0.0
2018-Feb-13 02:28N 53°34' E 008°34'0 0.0
2018-Feb-13 01:58N 53°34' E 008°34'0 0.0
2018-Feb-13 01:28N 53°34' E 008°34'0 0.6
2018-Feb-13 01:00N 53°34' E 008°34'1 1.7
2018-Feb-13 00:31N 53°34' E 008°33'0 0.1
2018-Feb-13 00:00N 53°35' E 008°33'0 0.0
2018-Feb-12 23:30N 53°35' E 008°33'0 0.0
2018-Feb-12 23:00N 53°35' E 008°33'0 0.0
2018-Feb-12 22:30N 53°35' E 008°33'0 0.0
2018-Feb-12 22:00N 53°35' E 008°33'0 0.0
2018-Feb-12 21:30N 53°35' E 008°33'0 0.0
2018-Feb-12 21:00N 53°35' E 008°33'0 0.0
2018-Feb-12 20:30N 53°35' E 008°33'0 0.0
2018-Feb-12 20:00N 53°35' E 008°33'0 0.0
2018-Feb-12 19:30N 53°35' E 008°33'0 0.0
2018-Feb-12 19:00N 53°35' E 008°33'0 0.0
2018-Feb-12 18:27N 53°35' E 008°33'0 0.0
2018-Feb-12 18:00N 53°35' E 008°33'0 0.0
2018-Feb-12 17:30N 53°35' E 008°33'0 0.0
2018-Feb-12 17:00N 53°35' E 008°33'0 0.0
2018-Feb-12 16:30N 53°35' E 008°33'0 0.0
2018-Feb-12 15:57N 53°35' E 008°33'0 0.0
2018-Feb-12 15:12N 53°35' E 008°33'0 0.0
2018-Feb-12 15:00N 53°35' E 008°33'0 0.0
2018-Feb-12 14:30N 53°35' E 008°33'0 0.0
2018-Feb-12 14:00N 53°35' E 008°33'0 0.0
2018-Feb-12 13:30N 53°35' E 008°33'0 0.0
2018-Feb-12 13:00N 53°35' E 008°33'0 0.0
2018-Feb-12 12:30N 53°35' E 008°33'0 0.0
2018-Feb-12 12:00N 53°35' E 008°33'0 0.0
2018-Feb-12 11:30N 53°35' E 008°33'0 0.0
2018-Feb-12 11:00N 53°35' E 008°33'0 0.0
2018-Feb-12 10:30N 53°35' E 008°33'0 0.0
2018-Feb-12 10:00N 53°35' E 008°33'0 0.0
2018-Feb-12 09:30N 53°35' E 008°33'0 0.0
2018-Feb-12 09:00N 53°35' E 008°33'0 0.0
2018-Feb-12 08:30N 53°35' E 008°33'0 0.0
2018-Feb-12 08:00N 53°35' E 008°33'0 0.0
2018-Feb-12 07:30N 53°35' E 008°33'0 0.0
2018-Feb-12 07:00N 53°35' E 008°33'0 0.0
2018-Feb-12 06:30N 53°35' E 008°33'0 0.0
2018-Feb-12 06:00N 53°35' E 008°33'0 0.0
2018-Feb-12 05:24N 53°35' E 008°33'0 0.0
2018-Feb-12 05:00N 53°35' E 008°33'0 0.0
2018-Feb-12 04:30N 53°35' E 008°33'0 0.0
2018-Feb-12 04:00N 53°35' E 008°33'0 0.0
2018-Feb-12 03:30N 53°35' E 008°33'0 0.0
2018-Feb-12 03:00N 53°35' E 008°33'0 0.0
2018-Feb-12 02:30N 53°35' E 008°33'0 0.0
2018-Feb-12 01:54N 53°35' E 008°33'0 0.0
2018-Feb-12 01:30N 53°35' E 008°33'0 0.0
2018-Feb-12 01:00N 53°35' E 008°33'0 0.0
2018-Feb-12 00:30N 53°35' E 008°33'0 0.0
2018-Feb-12 00:00N 53°35' E 008°33'0 0.0
2018-Feb-11 23:30N 53°35' E 008°33'0 0.0
2018-Feb-11 23:00N 53°35' E 008°33'0 0.0
2018-Feb-11 22:30N 53°35' E 008°33'0 0.0
2018-Feb-11 22:00N 53°35' E 008°33'0 0.0
2018-Feb-11 21:30N 53°35' E 008°33'0 0.0
2018-Feb-11 21:00N 53°35' E 008°33'0 0.0
2018-Feb-11 20:30N 53°35' E 008°33'0 0.0
2018-Feb-11 20:00N 53°35' E 008°33'0 0.0
2018-Feb-11 19:27N 53°35' E 008°33'0 0.0
2018-Feb-11 19:00N 53°35' E 008°33'0 0.0
2018-Feb-11 18:30N 53°35' E 008°33'0 0.0
2018-Feb-11 18:00N 53°35' E 008°33'0 0.0
2018-Feb-11 17:30N 53°35' E 008°33'0 0.0
2018-Feb-11 17:00N 53°35' E 008°33'0 0.0
2018-Feb-11 16:30N 53°35' E 008°33'0 0.0
2018-Feb-11 16:00N 53°35' E 008°33'0 0.0
2018-Feb-11 15:30N 53°35' E 008°33'0 0.0
2018-Feb-11 15:00N 53°35' E 008°33'0 0.0
2018-Feb-11 14:30N 53°35' E 008°33'0 0.0
2018-Feb-11 14:00N 53°35' E 008°33'0 0.0
2018-Feb-11 13:30N 53°35' E 008°33'0 0.0
2018-Feb-11 13:00N 53°35' E 008°33'0 0.0
2018-Feb-11 12:30N 53°35' E 008°33'0 0.0
2018-Feb-11 12:00N 53°35' E 008°33'0 0.0
2018-Feb-11 11:30N 53°35' E 008°33'0 0.0
2018-Feb-11 11:00N 53°35' E 008°33'0 0.0
2018-Feb-11 10:30N 53°35' E 008°33'0 0.1
2018-Feb-11 10:00N 53°34' E 008°33'0 0.7
2018-Feb-11 09:30N 53°34' E 008°33'1 2.6
2018-Feb-11 09:01N 53°35' E 008°31'611.6
2018-Feb-11 08:29N 53°39' E 008°24'715.6
2018-Feb-11 08:01N 53°44' E 008°14'815.6
2018-Feb-11 07:30N 53°50' E 008°05'  
Track history (hours):
 
Tides and Currents Weather Stations Pressure Air Temp Water Temp Dewpoint Dewpoint Depression Visibility Wind Speed Wind Dir Waves Ship Positions

Deneb Leader

Last reported at 2018-Feb-21 07:00 UTC. Time now 2018-Feb-21 07:17 UTC.
Position N 51°19' E 003°13'.

Length 199 m; draft 9.3 m.

Type: Cargo ship. MMSI: 356688000.

Date/timePositionNaut miles runAvg speedWind from/ knotsBaromVisibWave heightAir tempDewpointWater temp
2018-Feb-21 07:00N 51°19' E 003°13'0 0.0
2018-Feb-21 06:30N 51°19' E 003°13'0 0.0
2018-Feb-21 06:00N 51°19' E 003°13'0 0.0
2018-Feb-21 05:30N 51°19' E 003°13'0 0.0
2018-Feb-21 05:00N 51°19' E 003°13'0 0.0
2018-Feb-21 04:30N 51°19' E 003°13'0 0.0
2018-Feb-21 04:00N 51°19' E 003°13'0 0.0
2018-Feb-21 03:30N 51°19' E 003°13'0 0.0
2018-Feb-21 03:00N 51°19' E 003°13'0 0.0
2018-Feb-21 02:30N 51°19' E 003°13'0 0.0
2018-Feb-21 02:00N 51°19' E 003°13'0 0.0
2018-Feb-21 01:30N 51°19' E 003°13'0 0.0
2018-Feb-21 01:00N 51°19' E 003°13'0 0.0
2018-Feb-21 00:30N 51°19' E 003°13'1 2.8
2018-Feb-21 00:00N 51°20' E 003°13'0 0.0
2018-Feb-20 23:30N 51°20' E 003°13'0 0.0
2018-Feb-20 23:00N 51°20' E 003°13'2 3.8
2018-Feb-20 22:30N 51°22' E 003°12'510.5
2018-Feb-20 22:00N 51°24' E 003°04'611.6
2018-Feb-20 21:30N 51°22' E 002°55'713.2
2018-Feb-20 21:00N 51°22' E 002°45'5 9.8
2018-Feb-20 20:29N 51°22' E 002°37'4 7.5
2018-Feb-20 20:00N 51°22' E 002°31'2 4.1
2018-Feb-20 19:29N 51°24' E 002°31'5 9.5
2018-Feb-20 18:59N 51°28' E 002°34'5 9.3
2018-Feb-20 18:30N 51°33' E 002°36'5 9.8
2018-Feb-20 18:00N 51°37' E 002°39'510.1
2018-Feb-20 17:30N 51°42' E 002°38'612.9
2018-Feb-20 16:59N 51°49' E 002°39'714.5
2018-Feb-20 16:29N 51°56' E 002°43'8616.6
2018-Feb-20 11:18N 53°04' E 004°10'916.8
2018-Feb-20 10:47N 53°09' E 004°21'416.2
2018-Feb-20 10:30N 53°13' E 004°25'2514.4
2018-Feb-20 08:48N 53°32' E 004°51'1114.9
2018-Feb-20 08:04N 53°36' E 005°08'115.0
2018-Feb-20 07:59N 53°36' E 005°10'2316.0
2018-Feb-20 06:33N 53°43' E 005°47'317.2
2018-Feb-20 06:23N 53°44' E 005°52'7016.1
2018-Feb-20 02:03N 53°53' E 007°49'114.5
2018-Feb-20 01:59N 53°53' E 007°50'612.7
2018-Feb-20 01:30N 53°51' E 008°00'816.0
2018-Feb-20 01:00N 53°46' E 008°11'815.5
2018-Feb-20 00:30N 53°41' E 008°21'713.3
2018-Feb-20 00:00N 53°37' E 008°29'4 7.4
2018-Feb-19 23:30N 53°34' E 008°33'0 1.0
2018-Feb-19 23:00N 53°34' E 008°33'0 0.8
2018-Feb-19 22:30N 53°35' E 008°33'0 0.1
2018-Feb-19 22:00N 53°35' E 008°33'0 0.0
2018-Feb-19 21:30N 53°35' E 008°33'0 0.0
2018-Feb-19 21:00N 53°35' E 008°33'0 0.0
2018-Feb-19 20:30N 53°35' E 008°33'0 0.0
2018-Feb-19 20:00N 53°35' E 008°33'0 0.0
2018-Feb-19 19:30N 53°35' E 008°33'0 0.0
2018-Feb-19 19:00N 53°35' E 008°33'0 0.0
2018-Feb-19 18:30N 53°35' E 008°33'0 0.0
2018-Feb-19 18:00N 53°35' E 008°33'0 0.0
2018-Feb-19 17:30N 53°35' E 008°33'0 0.0
2018-Feb-19 17:00N 53°35' E 008°33'0 0.0
2018-Feb-19 16:30N 53°35' E 008°33'0 0.0
2018-Feb-19 16:00N 53°35' E 008°33'0 0.0
2018-Feb-19 15:30N 53°35' E 008°33'0 0.0
2018-Feb-19 15:00N 53°35' E 008°33'0 0.0
2018-Feb-19 14:30N 53°35' E 008°33'0 0.0
2018-Feb-19 14:00N 53°35' E 008°33'0 0.0
2018-Feb-19 13:30N 53°35' E 008°33'0 0.0
2018-Feb-19 13:00N 53°35' E 008°33'0 0.0
2018-Feb-19 12:30N 53°35' E 008°33'0 0.0
2018-Feb-19 12:00N 53°35' E 008°33'0 0.0
2018-Feb-19 11:30N 53°35' E 008°33'0 0.0
2018-Feb-19 11:00N 53°35' E 008°33'0 0.0
2018-Feb-19 10:30N 53°35' E 008°33'0 0.0
2018-Feb-19 10:00N 53°35' E 008°33'0 0.0
2018-Feb-19 09:30N 53°35' E 008°33'0 0.0
2018-Feb-19 09:00N 53°35' E 008°33'0 0.0
2018-Feb-19 08:30N 53°35' E 008°33'0 0.0
2018-Feb-19 08:00N 53°35' E 008°33'0 0.0
2018-Feb-19 07:30N 53°35' E 008°33'0 0.0
2018-Feb-19 07:00N 53°35' E 008°33'0 0.0
2018-Feb-19 06:30N 53°35' E 008°33'0 0.0
2018-Feb-19 06:00N 53°35' E 008°33'0 0.0
2018-Feb-19 05:30N 53°35' E 008°33'0 0.0
2018-Feb-19 05:00N 53°35' E 008°33'0 0.0
2018-Feb-19 04:30N 53°35' E 008°33'0 0.0
2018-Feb-19 04:00N 53°35' E 008°33'0 0.0
2018-Feb-19 03:30N 53°35' E 008°33'0 0.0
2018-Feb-19 03:00N 53°35' E 008°33'0 0.0
2018-Feb-19 02:30N 53°35' E 008°33'0 0.0
2018-Feb-19 02:00N 53°35' E 008°33'0 0.0
2018-Feb-19 01:30N 53°35' E 008°33'0 0.0
2018-Feb-19 01:00N 53°35' E 008°33'0 0.0
2018-Feb-19 00:30N 53°35' E 008°33'0 0.0
2018-Feb-19 00:00N 53°35' E 008°33'0 0.0
2018-Feb-18 23:30N 53°35' E 008°33'0 0.0
2018-Feb-18 23:00N 53°35' E 008°33'0 0.0
2018-Feb-18 22:30N 53°35' E 008°33'0 0.0
2018-Feb-18 22:00N 53°35' E 008°33'0 0.0
2018-Feb-18 21:30N 53°35' E 008°33'0 0.0
2018-Feb-18 21:00N 53°35' E 008°33'0 0.0
2018-Feb-18 20:30N 53°35' E 008°33'0 0.0
2018-Feb-18 20:00N 53°35' E 008°33'0 0.6
2018-Feb-18 19:30N 53°34' E 008°33'0 1.0
2018-Feb-18 19:00N 53°34' E 008°34'0 0.0
2018-Feb-18 18:29N 53°34' E 008°34'0 0.0
2018-Feb-18 17:59N 53°34' E 008°34'0 0.0
2018-Feb-18 17:29N 53°34' E 008°34'0 0.0
2018-Feb-18 16:59N 53°34' E 008°34'0 0.0
2018-Feb-18 16:29N 53°34' E 008°34'0 0.0
2018-Feb-18 15:59N 53°34' E 008°34'0 0.0
2018-Feb-18 15:29N 53°34' E 008°34'0 0.0
2018-Feb-18 14:59N 53°34' E 008°34'0 0.0
2018-Feb-18 14:29N 53°34' E 008°34'0 0.0
2018-Feb-18 13:56N 53°34' E 008°34'0 0.0
2018-Feb-18 13:29N 53°34' E 008°34'0 0.0
2018-Feb-18 12:59N 53°34' E 008°34'0 0.0
2018-Feb-18 12:29N 53°34' E 008°34'0 0.0
2018-Feb-18 11:59N 53°34' E 008°34'0 0.0
2018-Feb-18 11:29N 53°34' E 008°34'0 0.0
2018-Feb-18 10:59N 53°34' E 008°34'0 0.0
2018-Feb-18 10:29N 53°34' E 008°34'0 0.0
2018-Feb-18 09:59N 53°34' E 008°34'0 0.0
2018-Feb-18 09:29N 53°34' E 008°34'0 0.0
2018-Feb-18 08:56N 53°34' E 008°34'0 0.0
2018-Feb-18 08:29N 53°34' E 008°34'0 0.0
2018-Feb-18 07:59N 53°34' E 008°34'0 0.0
2018-Feb-18 07:29N 53°34' E 008°34'0 0.0
2018-Feb-18 06:59N 53°34' E 008°34'0 0.0
2018-Feb-18 06:29N 53°34' E 008°34'0 0.0
2018-Feb-18 05:59N 53°34' E 008°34'0 0.0
2018-Feb-18 05:29N 53°34' E 008°34'0 0.0
2018-Feb-18 04:59N 53°34' E 008°34'0 0.0
2018-Feb-18 04:29N 53°34' E 008°34'0 0.0
2018-Feb-18 03:59N 53°34' E 008°34'0 0.0
2018-Feb-18 03:29N 53°34' E 008°34'0 0.0
2018-Feb-18 02:59N 53°34' E 008°34'0 0.0
2018-Feb-18 02:29N 53°34' E 008°34'0 0.0
2018-Feb-18 01:59N 53°34' E 008°34'0 0.0
2018-Feb-18 01:29N 53°34' E 008°34'0 0.0
2018-Feb-18 00:59N 53°34' E 008°34'0 0.0
2018-Feb-18 00:29N 53°34' E 008°34'0 0.0
2018-Feb-17 23:59N 53°34' E 008°34'0 0.0
2018-Feb-17 23:29N 53°34' E 008°34'0 0.0
2018-Feb-17 22:59N 53°34' E 008°34'0 0.0
2018-Feb-17 22:29N 53°34' E 008°34'0 0.0
2018-Feb-17 21:59N 53°34' E 008°34'0 0.0
2018-Feb-17 21:29N 53°34' E 008°34'0 0.0
2018-Feb-17 20:59N 53°34' E 008°34'0 0.0
2018-Feb-17 20:29N 53°34' E 008°34'0 0.0
2018-Feb-17 19:53N 53°34' E 008°34'0 0.0
2018-Feb-17 19:29N 53°34' E 008°34'0 0.0
2018-Feb-17 18:59N 53°34' E 008°34'0 0.0
2018-Feb-17 18:29N 53°34' E 008°34'0 0.0
2018-Feb-17 17:59N 53°34' E 008°34'0 0.0
2018-Feb-17 17:29N 53°34' E 008°34'0 0.0
2018-Feb-17 16:59N 53°34' E 008°34'0 0.0
2018-Feb-17 16:29N 53°34' E 008°34'0 0.0
2018-Feb-17 15:56N 53°34' E 008°34'0 0.0
2018-Feb-17 15:29N 53°34' E 008°34'0 0.0
2018-Feb-17 14:59N 53°34' E 008°34'0 0.0
2018-Feb-17 14:29N 53°34' E 008°34'0 0.0
2018-Feb-17 13:59N 53°34' E 008°34'0 0.0
2018-Feb-17 13:29N 53°34' E 008°34'0 0.0
2018-Feb-17 12:59N 53°34' E 008°34'0 0.0
2018-Feb-17 12:29N 53°34' E 008°34'0 0.0
2018-Feb-17 11:59N 53°34' E 008°34'0 0.0
2018-Feb-17 11:29N 53°34' E 008°34'0 0.0
2018-Feb-17 10:59N 53°34' E 008°34'0 0.0
2018-Feb-17 10:29N 53°34' E 008°34'0 0.0
2018-Feb-17 09:59N 53°34' E 008°34'0 0.0
2018-Feb-17 09:29N 53°34' E 008°34'0 0.0
2018-Feb-17 08:59N 53°34' E 008°34'0 0.0
2018-Feb-17 08:29N 53°34' E 008°34'0 0.0
2018-Feb-17 07:59N 53°34' E 008°34'0 0.0
2018-Feb-17 07:29N 53°34' E 008°34'0 0.0
2018-Feb-17 06:59N 53°34' E 008°34'0 0.0
2018-Feb-17 06:29N 53°34' E 008°34'0 0.0
2018-Feb-17 05:59N 53°34' E 008°34'0 0.0
2018-Feb-17 05:29N 53°34' E 008°34'0 0.0
2018-Feb-17 04:59N 53°34' E 008°34'0 0.0
2018-Feb-17 04:29N 53°34' E 008°34'0 0.0
2018-Feb-17 03:59N 53°34' E 008°34'0 0.0
2018-Feb-17 03:29N 53°34' E 008°34'0 0.0
2018-Feb-17 02:59N 53°34' E 008°34'0 0.0
2018-Feb-17 02:29N 53°34' E 008°34'0 0.0
2018-Feb-17 01:59N 53°34' E 008°34'0 0.0
2018-Feb-17 01:29N 53°34' E 008°34'0 0.0
2018-Feb-17 00:59N 53°34' E 008°34'0 0.0
2018-Feb-17 00:29N 53°34' E 008°34'0 0.0
2018-Feb-16 23:59N 53°34' E 008°34'0 0.0
2018-Feb-16 23:29N 53°34' E 008°34'0 0.0
2018-Feb-16 22:59N 53°34' E 008°34'0 0.0
2018-Feb-16 22:29N 53°34' E 008°34'0 0.0
2018-Feb-16 21:59N 53°34' E 008°34'0 0.0
2018-Feb-16 21:29N 53°34' E 008°34'0 0.0
2018-Feb-16 20:59N 53°34' E 008°34'0 0.0
2018-Feb-16 20:29N 53°34' E 008°34'0 0.0
2018-Feb-16 19:59N 53°34' E 008°34'0 0.0
2018-Feb-16 19:29N 53°34' E 008°34'0 0.0
2018-Feb-16 18:59N 53°34' E 008°34'0 0.0
2018-Feb-16 18:29N 53°34' E 008°34'0 0.0
2018-Feb-16 17:59N 53°34' E 008°34'0 0.0
2018-Feb-16 17:29N 53°34' E 008°34'0 0.0
2018-Feb-16 16:59N 53°34' E 008°34'0 0.0
2018-Feb-16 16:29N 53°34' E 008°34'0 0.0
2018-Feb-16 15:59N 53°34' E 008°34'0 0.0
2018-Feb-16 15:29N 53°34' E 008°34'0 0.0
2018-Feb-16 14:59N 53°34' E 008°34'0 0.0
2018-Feb-16 14:29N 53°34' E 008°34'0 0.0
2018-Feb-16 13:59N 53°34' E 008°34'0 0.0
2018-Feb-16 13:29N 53°34' E 008°34'0 0.0
2018-Feb-16 12:59N 53°34' E 008°34'0 0.0
2018-Feb-16 12:29N 53°34' E 008°34'0 0.0
2018-Feb-16 11:59N 53°34' E 008°34'0 0.0
2018-Feb-16 11:29N 53°34' E 008°34'0 0.0
2018-Feb-16 10:59N 53°34' E 008°34'0 0.0
2018-Feb-16 10:29N 53°34' E 008°34'0 0.0
2018-Feb-16 09:59N 53°34' E 008°34'0 0.0
2018-Feb-16 09:29N 53°34' E 008°34'0 0.0
2018-Feb-16 08:59N 53°34' E 008°34'0 0.0
2018-Feb-16 08:29N 53°34' E 008°34'0 0.0
2018-Feb-16 07:59N 53°34' E 008°34'0 0.0
2018-Feb-16 07:29N 53°34' E 008°34'0 0.0
2018-Feb-16 06:59N 53°34' E 008°34'0 0.0
2018-Feb-16 06:29N 53°34' E 008°34'0 0.0
2018-Feb-16 05:59N 53°34' E 008°34'0 0.0
2018-Feb-16 05:29N 53°34' E 008°34'0 0.0
2018-Feb-16 04:53N 53°34' E 008°34'0 0.0
2018-Feb-16 04:29N 53°34' E 008°34'0 0.0
2018-Feb-16 03:59N 53°34' E 008°34'0 0.0
2018-Feb-16 03:29N 53°34' E 008°34'0 0.0
2018-Feb-16 02:59N 53°34' E 008°34'0 0.0
2018-Feb-16 02:29N 53°34' E 008°34'0 0.0
2018-Feb-16 01:59N 53°34' E 008°34'0 0.0
2018-Feb-16 01:29N 53°34' E 008°34'0 0.0
2018-Feb-16 00:59N 53°34' E 008°34'0 0.0
2018-Feb-16 00:29N 53°34' E 008°34'0 0.0
2018-Feb-15 23:59N 53°34' E 008°34'0 0.0
2018-Feb-15 23:29N 53°34' E 008°34'0 0.0
2018-Feb-15 22:59N 53°34' E 008°34'0 0.0
2018-Feb-15 22:29N 53°34' E 008°34'0 0.0
2018-Feb-15 21:59N 53°34' E 008°34'0 0.0
2018-Feb-15 21:29N 53°34' E 008°34'0 0.0
2018-Feb-15 20:59N 53°34' E 008°34'0 0.0
2018-Feb-15 20:29N 53°34' E 008°34'0 0.0
2018-Feb-15 19:59N 53°34' E 008°34'0 0.0
2018-Feb-15 19:29N 53°34' E 008°34'0 0.0
2018-Feb-15 18:59N 53°34' E 008°34'0 0.0
2018-Feb-15 18:29N 53°34' E 008°34'0 0.0
2018-Feb-15 17:59N 53°34' E 008°34'0 0.0
2018-Feb-15 17:29N 53°34' E 008°34'0 0.0
2018-Feb-15 16:59N 53°34' E 008°34'0 0.0
2018-Feb-15 16:29N 53°34' E 008°34'0 0.0
2018-Feb-15 15:59N 53°34' E 008°34'0 0.0
2018-Feb-15 15:29N 53°34' E 008°34'0 0.0
2018-Feb-15 14:59N 53°34' E 008°34'0 0.0
2018-Feb-15 14:29N 53°34' E 008°34'0 0.0
2018-Feb-15 13:59N 53°34' E 008°34'0 0.0
2018-Feb-15 13:26N 53°34' E 008°34'0 0.0
2018-Feb-15 12:59N 53°34' E 008°34'0 0.0
2018-Feb-15 12:29N 53°34' E 008°34'0 0.0
2018-Feb-15 11:59N 53°34' E 008°34'0 0.0
2018-Feb-15 11:29N 53°34' E 008°34'0 0.0
2018-Feb-15 10:59N 53°34' E 008°34'0 0.0
2018-Feb-15 10:29N 53°34' E 008°34'0 0.0
2018-Feb-15 09:59N 53°34' E 008°34'0 0.0
2018-Feb-15 09:29N 53°34' E 008°34'0 0.0
2018-Feb-15 08:59N 53°34' E 008°34'0 0.0
2018-Feb-15 08:29N 53°34' E 008°34'0 0.0
2018-Feb-15 07:59N 53°34' E 008°34'0 0.0
2018-Feb-15 07:29N 53°34' E 008°34'0 0.0
2018-Feb-15 06:59N 53°34' E 008°34'0 0.0
2018-Feb-15 06:23N 53°34' E 008°34'0 0.0
2018-Feb-15 05:59N 53°34' E 008°34'0 0.0
2018-Feb-15 05:29N 53°34' E 008°34'0 0.0
2018-Feb-15 04:59N 53°34' E 008°34'0 0.0
2018-Feb-15 04:29N 53°34' E 008°34'0 0.0
2018-Feb-15 03:59N 53°34' E 008°34'0 0.0
2018-Feb-15 03:29N 53°34' E 008°34'0 0.0
2018-Feb-15 02:59N 53°34' E 008°34'0 0.0
2018-Feb-15 02:29N 53°34' E 008°34'0 0.0
2018-Feb-15 01:59N 53°34' E 008°34'0 0.0
2018-Feb-15 01:29N 53°34' E 008°34'0 0.0
2018-Feb-15 00:59N 53°34' E 008°34'0 0.0
2018-Feb-15 00:29N 53°34' E 008°34'0 0.0
2018-Feb-14 23:59N 53°34' E 008°34'0 0.0
2018-Feb-14 23:29N 53°34' E 008°34'0 0.0
2018-Feb-14 22:59N 53°34' E 008°34'0 0.0
2018-Feb-14 22:29N 53°34' E 008°34'0 0.0
2018-Feb-14 21:59N 53°34' E 008°34'0 0.0
2018-Feb-14 21:29N 53°34' E 008°34'0 0.0
2018-Feb-14 20:59N 53°34' E 008°34'0 0.0
2018-Feb-14 20:29N 53°34' E 008°34'0 0.0
2018-Feb-14 19:59N 53°34' E 008°34'0 0.0
2018-Feb-14 19:29N 53°34' E 008°34'0 0.0
2018-Feb-14 18:59N 53°34' E 008°34'0 0.0
2018-Feb-14 18:29N 53°34' E 008°34'0 0.0
2018-Feb-14 17:59N 53°34' E 008°34'0 0.0
2018-Feb-14 17:29N 53°34' E 008°34'0 0.0
2018-Feb-14 16:59N 53°34' E 008°34'0 0.0
2018-Feb-14 16:29N 53°34' E 008°34'0 0.0
2018-Feb-14 15:59N 53°34' E 008°34'0 0.0
2018-Feb-14 15:29N 53°34' E 008°34'0 0.0
2018-Feb-14 14:59N 53°34' E 008°34'0 0.0
2018-Feb-14 14:29N 53°34' E 008°34'0 0.0
2018-Feb-14 13:59N 53°34' E 008°34'0 0.0
2018-Feb-14 13:29N 53°34' E 008°34'0 0.0
2018-Feb-14 12:59N 53°34' E 008°34'0 0.0
2018-Feb-14 12:29N 53°34' E 008°34'0 0.0
2018-Feb-14 11:59N 53°34' E 008°34'0 0.0
2018-Feb-14 11:29N 53°34' E 008°34'0 0.0
2018-Feb-14 10:59N 53°34' E 008°34'0 0.0
2018-Feb-14 10:29N 53°34' E 008°34'0 0.0
2018-Feb-14 09:59N 53°34' E 008°34'0 0.0
2018-Feb-14 09:29N 53°34' E 008°34'0 0.0
2018-Feb-14 08:59N 53°34' E 008°34'0 0.0
2018-Feb-14 08:29N 53°34' E 008°34'0 0.0
2018-Feb-14 07:59N 53°34' E 008°34'0 0.0
2018-Feb-14 07:29N 53°34' E 008°34'0 0.0
2018-Feb-14 06:59N 53°34' E 008°34'0 0.0
2018-Feb-14 06:29N 53°34' E 008°34'0 0.0
2018-Feb-14 05:59N 53°34' E 008°34'0 0.0
2018-Feb-14 05:29N 53°34' E 008°34'0 0.0
2018-Feb-14 04:59N 53°34' E 008°34'0 0.0
2018-Feb-14 04:29N 53°34' E 008°34'0 0.0
2018-Feb-14 03:59N 53°34' E 008°34'0 0.0
2018-Feb-14 03:28N 53°34' E 008°34'0 0.0
2018-Feb-14 02:58N 53°34' E 008°34'0 0.0
2018-Feb-14 02:29N 53°34' E 008°34'0 0.0
2018-Feb-14 01:59N 53°34' E 008°34'0 0.0
2018-Feb-14 01:29N 53°34' E 008°34'0 0.0
2018-Feb-14 00:59N 53°34' E 008°34'0 0.0
2018-Feb-14 00:29N 53°34' E 008°34'0 0.0
2018-Feb-13 23:59N 53°34' E 008°34'0 0.0
2018-Feb-13 23:29N 53°34' E 008°34'0 0.0
2018-Feb-13 22:58N 53°34' E 008°34'0 0.0
2018-Feb-13 22:29N 53°34' E 008°34'0 0.0
2018-Feb-13 21:58N 53°34' E 008°34'0 0.0
2018-Feb-13 21:29N 53°34' E 008°34'0 0.0
2018-Feb-13 20:59N 53°34' E 008°34'0 0.0
2018-Feb-13 20:29N 53°34' E 008°34'0 0.0
2018-Feb-13 19:59N 53°34' E 008°34'0 0.0
2018-Feb-13 19:29N 53°34' E 008°34'0 0.0
2018-Feb-13 18:59N 53°34' E 008°34'0 0.0
2018-Feb-13 18:29N 53°34' E 008°34'0 0.0
2018-Feb-13 17:58N 53°34' E 008°34'0 0.0
2018-Feb-13 17:29N 53°34' E 008°34'0 0.0
2018-Feb-13 16:58N 53°34' E 008°34'0 0.0
2018-Feb-13 16:28N 53°34' E 008°34'0 0.0
2018-Feb-13 15:58N 53°34' E 008°34'0 0.0
2018-Feb-13 15:28N 53°34' E 008°34'0 0.0
2018-Feb-13 14:58N 53°34' E 008°34'0 0.0
2018-Feb-13 14:29N 53°34' E 008°34'0 0.0
2018-Feb-13 13:58N 53°34' E 008°34'0 0.0
2018-Feb-13 13:29N 53°34' E 008°34'0 0.0
2018-Feb-13 12:58N 53°34' E 008°34'0 0.0
2018-Feb-13 12:28N 53°34' E 008°34'0 0.0
2018-Feb-13 11:58N 53°34' E 008°34'0 0.0
2018-Feb-13 11:29N 53°34' E 008°34'0 0.0
2018-Feb-13 10:59N 53°34' E 008°34'0 0.0
2018-Feb-13 10:29N 53°34' E 008°34'0 0.0
2018-Feb-13 09:58N 53°34' E 008°34'0 0.0
2018-Feb-13 09:29N 53°34' E 008°34'0 0.0
2018-Feb-13 08:58N 53°34' E 008°34'0 0.0
2018-Feb-13 08:28N 53°34' E 008°34'0 0.0
2018-Feb-13 07:58N 53°34' E 008°34'0 0.0
2018-Feb-13 07:28N 53°34' E 008°34'0 0.0
2018-Feb-13 06:58N 53°34' E 008°34'0 0.0
2018-Feb-13 06:28N 53°34' E 008°34'0 0.0
2018-Feb-13 05:58N 53°34' E 008°34'0 0.0
2018-Feb-13 05:29N 53°34' E 008°34'0 0.0
2018-Feb-13 04:58N 53°34' E 008°34'0 0.0
2018-Feb-13 04:29N 53°34' E 008°34'0 0.0
2018-Feb-13 03:58N 53°34' E 008°34'0 0.0
2018-Feb-13 03:29N 53°34' E 008°34'0 0.0
2018-Feb-13 02:59N 53°34' E 008°34'0 0.0
2018-Feb-13 02:28N 53°34' E 008°34'0 0.0
2018-Feb-13 01:58N 53°34' E 008°34'0 0.0
2018-Feb-13 01:28N 53°34' E 008°34'0 0.6
2018-Feb-13 01:00N 53°34' E 008°34'1 1.7
2018-Feb-13 00:31N 53°34' E 008°33'0 0.1
2018-Feb-13 00:00N 53°35' E 008°33'0 0.0
2018-Feb-12 23:30N 53°35' E 008°33'0 0.0
2018-Feb-12 23:00N 53°35' E 008°33'0 0.0
2018-Feb-12 22:30N 53°35' E 008°33'0 0.0
2018-Feb-12 22:00N 53°35' E 008°33'0 0.0
2018-Feb-12 21:30N 53°35' E 008°33'0 0.0
2018-Feb-12 21:00N 53°35' E 008°33'0 0.0
2018-Feb-12 20:30N 53°35' E 008°33'0 0.0
2018-Feb-12 20:00N 53°35' E 008°33'0 0.0
2018-Feb-12 19:30N 53°35' E 008°33'0 0.0
2018-Feb-12 19:00N 53°35' E 008°33'0 0.0
2018-Feb-12 18:27N 53°35' E 008°33'0 0.0
2018-Feb-12 18:00N 53°35' E 008°33'0 0.0
2018-Feb-12 17:30N 53°35' E 008°33'0 0.0
2018-Feb-12 17:00N 53°35' E 008°33'0 0.0
2018-Feb-12 16:30N 53°35' E 008°33'0 0.0
2018-Feb-12 15:57N 53°35' E 008°33'0 0.0
2018-Feb-12 15:12N 53°35' E 008°33'0 0.0
2018-Feb-12 15:00N 53°35' E 008°33'0 0.0
2018-Feb-12 14:30N 53°35' E 008°33'0 0.0
2018-Feb-12 14:00N 53°35' E 008°33'0 0.0
2018-Feb-12 13:30N 53°35' E 008°33'0 0.0
2018-Feb-12 13:00N 53°35' E 008°33'0 0.0
2018-Feb-12 12:30N 53°35' E 008°33'0 0.0
2018-Feb-12 12:00N 53°35' E 008°33'0 0.0
2018-Feb-12 11:30N 53°35' E 008°33'0 0.0
2018-Feb-12 11:00N 53°35' E 008°33'0 0.0
2018-Feb-12 10:30N 53°35' E 008°33'0 0.0
2018-Feb-12 10:00N 53°35' E 008°33'0 0.0
2018-Feb-12 09:30N 53°35' E 008°33'0 0.0
2018-Feb-12 09:00N 53°35' E 008°33'0 0.0
2018-Feb-12 08:30N 53°35' E 008°33'0 0.0
2018-Feb-12 08:00N 53°35' E 008°33'0 0.0
2018-Feb-12 07:30N 53°35' E 008°33'0 0.0
2018-Feb-12 07:00N 53°35' E 008°33'0 0.0
2018-Feb-12 06:30N 53°35' E 008°33'0 0.0
2018-Feb-12 06:00N 53°35' E 008°33'0 0.0
2018-Feb-12 05:24N 53°35' E 008°33'0 0.0
2018-Feb-12 05:00N 53°35' E 008°33'0 0.0
2018-Feb-12 04:30N 53°35' E 008°33'0 0.0
2018-Feb-12 04:00N 53°35' E 008°33'0 0.0
2018-Feb-12 03:30N 53°35' E 008°33'0 0.0
2018-Feb-12 03:00N 53°35' E 008°33'0 0.0
2018-Feb-12 02:30N 53°35' E 008°33'0 0.0
2018-Feb-12 01:54N 53°35' E 008°33'0 0.0
2018-Feb-12 01:30N 53°35' E 008°33'0 0.0
2018-Feb-12 01:00N 53°35' E 008°33'0 0.0
2018-Feb-12 00:30N 53°35' E 008°33'0 0.0
2018-Feb-12 00:00N 53°35' E 008°33'0 0.0
2018-Feb-11 23:30N 53°35' E 008°33'0 0.0
2018-Feb-11 23:00N 53°35' E 008°33'0 0.0
2018-Feb-11 22:30N 53°35' E 008°33'0 0.0
2018-Feb-11 22:00N 53°35' E 008°33'0 0.0
2018-Feb-11 21:30N 53°35' E 008°33'0 0.0
2018-Feb-11 21:00N 53°35' E 008°33'0 0.0
2018-Feb-11 20:30N 53°35' E 008°33'0 0.0
2018-Feb-11 20:00N 53°35' E 008°33'0 0.0
2018-Feb-11 19:27N 53°35' E 008°33'0 0.0
2018-Feb-11 19:00N 53°35' E 008°33'0 0.0
2018-Feb-11 18:30N 53°35' E 008°33'0 0.0
2018-Feb-11 18:00N 53°35' E 008°33'0 0.0
2018-Feb-11 17:30N 53°35' E 008°33'0 0.0
2018-Feb-11 17:00N 53°35' E 008°33'0 0.0
2018-Feb-11 16:30N 53°35' E 008°33'0 0.0
2018-Feb-11 16:00N 53°35' E 008°33'0 0.0
2018-Feb-11 15:30N 53°35' E 008°33'0 0.0
2018-Feb-11 15:00N 53°35' E 008°33'0 0.0
2018-Feb-11 14:30N 53°35' E 008°33'0 0.0
2018-Feb-11 14:00N 53°35' E 008°33'0 0.0
2018-Feb-11 13:30N 53°35' E 008°33'0 0.0
2018-Feb-11 13:00N 53°35' E 008°33'0 0.0
2018-Feb-11 12:30N 53°35' E 008°33'0 0.0
2018-Feb-11 12:00N 53°35' E 008°33'0 0.0
2018-Feb-11 11:30N 53°35' E 008°33'0 0.0
2018-Feb-11 11:00N 53°35' E 008°33'0 0.0
2018-Feb-11 10:30N 53°35' E 008°33'0 0.1
2018-Feb-11 10:00N 53°34' E 008°33'0 0.7
2018-Feb-11 09:30N 53°34' E 008°33'1 2.6
2018-Feb-11 09:01N 53°35' E 008°31'611.6
2018-Feb-11 08:29N 53°39' E 008°24'715.6
2018-Feb-11 08:01N 53°44' E 008°14'815.6
2018-Feb-11 07:30N 53°50' E 008°05'  

Dump ship's entire track history